Time,TemperatureF,DewpointF,PressureIn,WindDirection,WindDirectionDegrees,WindSpeedMPH,WindSpeedGustMPH,Humidity,HourlyPrecipIn,Conditions,Clouds,dailyrainin,SoftwareType,DateUTC
2013-04-08 00:31:00,34.5,29.0,29.72,ESE,113,0.0,0.0,80,0.00,,,0.00,WUHU21623XXSP,2013-04-08 05:31:00,
2013-04-08 01:31:00,34.3,29.1,29.71,ESE,113,0.0,0.0,81,0.00,,,0.00,WUHU21623XXSP,2013-04-08 06:31:00,
2013-04-08 02:31:00,34.9,29.7,29.69,ESE,113,4.0,4.0,81,0.00,,,0.00,WUHU21623XXSP,2013-04-08 07:31:00,
2013-04-08 03:31:00,35.2,30.3,29.65,ENE,68,2.9,2.9,82,0.00,,,0.00,WUHU21623XXSP,2013-04-08 08:31:00,
2013-04-08 04:31:00,36.3,31.6,29.63,SSE,158,5.1,5.1,83,0.00,,,0.00,WUHU21623XXSP,2013-04-08 09:31:00,
2013-04-08 05:31:00,37.6,32.9,29.60,SE,135,5.1,5.1,83,0.00,,,0.00,WUHU21623XXSP,2013-04-08 10:31:00,
2013-04-08 06:31:00,39.4,34.4,29.56,East,90,5.6,5.6,82,0.00,,,0.00,WUHU21623XXSP,2013-04-08 11:31:00,
2013-04-08 07:31:00,39.7,34.7,29.54,East,90,4.0,4.0,82,0.00,,,0.00,WUHU21623XXSP,2013-04-08 12:31:00,
2013-04-08 08:31:00,37.9,34.3,29.52,East,90,3.6,3.6,87,0.00,,,0.00,WUHU21623XXSP,2013-04-08 13:31:00,
2013-04-08 09:31:00,38.3,35.3,29.46,SE,135,4.5,4.5,89,0.00,,,0.14,WUHU21623XXSP,2013-04-08 14:31:00,
2013-04-08 10:31:00,38.8,36.4,29.43,ENE,68,3.1,3.1,91,0.00,,,0.38,WUHU21623XXSP,2013-04-08 15:31:00,
2013-04-08 11:31:00,40.3,38.1,29.42,NE,45,5.6,5.6,92,0.00,,,0.51,WUHU21623XXSP,2013-04-08 16:31:00,
2013-04-08 12:31:00,41.4,38.9,29.49,NW,315,8.1,8.1,91,0.00,,,0.63,WUHU21623XXSP,2013-04-08 17:31:00,
2013-04-08 13:02:00,41.2,38.8,29.53,WNW,292,3.6,3.6,91,0.00,,,0.63,WUHU21623XXSP,2013-04-08 18:02:00,
2013-04-08 13:07:00,41.0,38.6,29.53,WNW,292,1.8,3.6,91,0.00,,,0.63,WUHU21623XXSP,2013-04-08 18:07:00,
2013-04-08 13:12:00,40.8,38.4,29.54,West,270,9.8,9.8,91,0.00,,,0.63,WUHU21623XXSP,2013-04-08 18:12:00,
2013-04-08 13:17:00,40.8,38.4,29.54,NNW,337,0.0,9.8,91,0.00,,,0.63,WUHU21623XXSP,2013-04-08 18:17:00,
2013-04-08 13:22:00,40.8,38.4,29.54,WSW,247,3.1,9.8,91,0.00,,,0.63,WUHU21623XXSP,2013-04-08 18:22:00,
2013-04-08 13:27:00,40.8,38.4,29.54,West,270,6.0,6.0,91,0.00,,,0.63,WUHU21623XXSP,2013-04-08 18:27:00,
2013-04-08 13:33:00,41.2,38.8,29.54,WNW,292,3.6,8.7,91,0.00,,,0.63,WUHU21623XXSP,2013-04-08 18:33:00,
2013-04-08 13:37:00,41.4,38.9,29.55,WNW,292,3.6,8.7,91,0.00,,,0.63,WUHU21623XXSP,2013-04-08 18:37:00,
2013-04-08 13:42:00,41.5,39.1,29.56,WNW,292,5.6,5.6,91,0.00,,,0.63,WUHU21623XXSP,2013-04-08 18:42:00,
2013-04-08 13:48:00,41.5,39.1,29.56,WNW,292,2.0,5.6,91,0.00,,,0.63,WUHU21623XXSP,2013-04-08 18:48:00,
2013-04-08 13:53:00,41.7,39.3,29.56,WNW,292,0.0,4.3,91,0.00,,,0.63,WUHU21623XXSP,2013-04-08 18:53:00,
2013-04-08 13:58:00,42.1,39.6,29.57,West,270,11.4,11.4,91,0.00,,,0.63,WUHU21623XXSP,2013-04-08 18:58:00,
2013-04-08 14:03:00,42.1,39.6,29.57,WNW,292,6.5,11.4,91,0.00,,,0.63,WUHU21623XXSP,2013-04-08 19:03:00,
2013-04-08 14:08:00,42.4,40.0,29.56,WNW,292,0.0,6.5,91,0.00,,,0.63,WUHU21623XXSP,2013-04-08 19:08:00,
2013-04-08 14:13:00,43.0,40.5,29.56,South,180,2.5,5.4,91,0.00,,,0.63,WUHU21623XXSP,2013-04-08 19:13:00,
2013-04-08 14:18:00,43.5,41.1,29.56,NW,315,8.9,8.9,91,0.00,,,0.63,WUHU21623XXSP,2013-04-08 19:18:00,
2013-04-08 14:23:00,43.5,41.1,29.56,WNW,292,2.5,8.9,91,0.00,,,0.63,WUHU21623XXSP,2013-04-08 19:23:00,
2013-04-08 14:28:00,44.1,41.4,29.56,WNW,292,5.1,11.2,90,0.00,,,0.63,WUHU21623XXSP,2013-04-08 19:28:00,
2013-04-08 14:33:00,44.1,41.1,29.57,WNW,292,4.3,11.2,89,0.00,,,0.63,WUHU21623XXSP,2013-04-08 19:33:00,
2013-04-08 14:38:00,44.2,41.1,29.58,WSW,247,0.0,5.6,89,0.00,,,0.63,WUHU21623XXSP,2013-04-08 19:38:00,
2013-04-08 14:43:00,44.4,41.2,29.58,WNW,292,0.0,11.2,89,0.00,,,0.63,WUHU21623XXSP,2013-04-08 19:43:00,
2013-04-08 14:48:00,44.4,41.4,29.59,NW,315,4.0,11.2,89,0.00,,,0.63,WUHU21623XXSP,2013-04-08 19:48:00,
2013-04-08 14:53:00,44.4,41.1,29.59,West,270,0.0,4.0,88,0.00,,,0.63,WUHU21623XXSP,2013-04-08 19:53:00,
2013-04-08 14:58:00,44.8,41.5,29.59,WSW,247,0.0,6.7,88,0.00,,,0.63,WUHU21623XXSP,2013-04-08 19:58:00,
2013-04-08 15:03:00,45.1,41.8,29.59,WNW,292,7.6,7.6,88,0.00,,,0.63,WUHU21623XXSP,2013-04-08 20:03:00,
2013-04-08 15:08:00,45.1,41.5,29.59,WNW,292,2.9,7.6,87,0.00,,,0.63,WUHU21623XXSP,2013-04-08 20:08:00,
2013-04-08 15:13:00,45.3,41.4,29.59,NW,315,0.0,2.9,86,0.00,,,0.63,WUHU21623XXSP,2013-04-08 20:13:00,
2013-04-08 15:18:00,45.7,41.8,29.59,NW,315,6.0,6.0,86,0.00,,,0.63,WUHU21623XXSP,2013-04-08 20:18:00,
2013-04-08 15:23:00,46.0,42.1,29.59,WNW,292,0.0,6.0,86,0.00,,,0.63,WUHU21623XXSP,2013-04-08 20:23:00,
2013-04-08 15:28:00,46.0,42.1,29.59,WNW,292,3.8,6.0,86,0.00,,,0.63,WUHU21623XXSP,2013-04-08 20:28:00,
2013-04-08 15:33:00,46.6,42.6,29.58,NW,315,11.2,11.2,86,0.00,,,0.63,WUHU21623XXSP,2013-04-08 20:33:00,
2013-04-08 15:38:00,47.3,43.3,29.59,NW,315,8.5,12.1,86,0.00,,,0.63,WUHU21623XXSP,2013-04-08 20:38:00,
2013-04-08 15:43:00,47.7,43.4,29.59,NW,315,2.5,12.1,85,0.00,,,0.63,WUHU21623XXSP,2013-04-08 20:43:00,
2013-04-08 15:48:00,47.8,43.2,29.60,WNW,292,8.3,8.3,84,0.00,,,0.63,WUHU21623XXSP,2013-04-08 20:48:00,
2013-04-08 15:53:00,48.0,43.4,29.59,WNW,292,2.5,8.3,83,0.00,,,0.63,WUHU21623XXSP,2013-04-08 20:53:00,
2013-04-08 15:58:00,48.2,43.6,29.60,SW,225,0.0,7.2,84,0.00,,,0.63,WUHU21623XXSP,2013-04-08 20:58:00,
2013-04-08 16:03:00,48.6,43.9,29.59,WNW,292,0.0,5.8,84,0.00,,,0.63,WUHU21623XXSP,2013-04-08 21:03:00,
2013-04-08 16:08:00,48.7,43.9,29.60,WNW,292,0.0,5.8,83,0.00,,,0.63,WUHU21623XXSP,2013-04-08 21:08:00,
2013-04-08 16:13:00,49.3,44.3,29.60,NW,315,8.3,8.3,83,0.00,,,0.63,WUHU21623XXSP,2013-04-08 21:13:00,
2013-04-08 16:18:00,49.1,44.1,29.61,WNW,292,0.0,8.3,83,0.00,,,0.63,WUHU21623XXSP,2013-04-08 21:18:00,
2013-04-08 16:23:00,49.1,43.8,29.61,WNW,292,0.0,5.4,82,0.00,,,0.63,WUHU21623XXSP,2013-04-08 21:23:00,
2013-04-08 16:28:00,49.1,43.8,29.61,WNW,292,1.6,1.6,82,0.00,,,0.63,WUHU21623XXSP,2013-04-08 21:28:00,
2013-04-08 16:33:00,49.1,44.1,29.61,WNW,292,4.0,4.0,83,0.00,,,0.63,WUHU21623XXSP,2013-04-08 21:33:00,
2013-04-08 16:38:00,48.7,43.4,29.61,NW,315,3.6,4.0,82,0.00,,,0.63,WUHU21623XXSP,2013-04-08 21:38:00,
2013-04-08 16:44:00,48.7,43.8,29.62,WNW,292,2.2,3.6,83,0.00,,,0.63,WUHU21623XXSP,2013-04-08 21:44:00,
2013-04-08 16:49:00,48.7,43.8,29.62,WNW,292,0.0,2.2,83,0.00,,,0.63,WUHU21623XXSP,2013-04-08 21:49:00,
2013-04-08 16:54:00,49.1,44.1,29.63,NW,315,0.0,2.2,83,0.00,,,0.63,WUHU21623XXSP,2013-04-08 21:54:00,
2013-04-08 16:59:00,49.3,44.0,29.63,NW,315,3.4,3.4,82,0.00,,,0.63,WUHU21623XXSP,2013-04-08 21:59:00,
2013-04-08 17:04:00,49.3,44.0,29.64,West,270,2.5,3.4,82,0.00,,,0.63,WUHU21623XXSP,2013-04-08 22:04:00,
2013-04-08 17:09:00,49.3,44.0,29.64,WNW,292,0.0,3.4,82,0.00,,,0.63,WUHU21623XXSP,2013-04-08 22:09:00,
2013-04-08 17:14:00,49.1,43.8,29.64,West,270,0.0,2.5,82,0.00,,,0.63,WUHU21623XXSP,2013-04-08 22:14:00,
2013-04-08 17:19:00,49.3,44.3,29.65,NW,315,6.3,6.3,83,0.00,,,0.63,WUHU21623XXSP,2013-04-08 22:19:00,
2013-04-08 17:24:00,49.3,44.3,29.65,SW,225,0.0,6.3,83,0.00,,,0.63,WUHU21623XXSP,2013-04-08 22:24:00,
2013-04-08 17:29:00,49.3,44.3,29.66,WNW,292,0.0,0.0,82,0.00,,,0.63,WUHU21623XXSP,2013-04-08 22:29:00,
2013-04-08 17:34:00,48.7,43.4,29.66,West,270,0.0,0.0,82,0.00,,,0.63,WUHU21623XXSP,2013-04-08 22:34:00,
2013-04-08 17:39:00,48.7,43.4,29.66,West,270,0.0,0.0,83,0.00,,,0.63,WUHU21623XXSP,2013-04-08 22:39:00,
2013-04-08 17:44:00,48.7,43.8,29.66,West,270,1.8,1.8,83,0.00,,,0.63,WUHU21623XXSP,2013-04-08 22:44:00,
2013-04-08 17:50:00,48.6,43.8,29.67,WNW,292,0.0,1.8,83,0.00,,,0.63,WUHU21623XXSP,2013-04-08 22:50:00,
2013-04-08 17:55:00,48.7,43.6,29.67,SW,225,3.6,3.6,83,0.00,,,0.63,WUHU21623XXSP,2013-04-08 22:55:00,
2013-04-08 18:00:00,48.6,43.6,29.67,NW,315,0.9,3.6,83,0.00,,,0.63,WUHU21623XXSP,2013-04-08 23:00:00,
2013-04-08 18:05:00,48.4,43.4,29.68,NW,315,0.0,0.9,83,0.00,,,0.63,WUHU21623XXSP,2013-04-08 23:05:00,
2013-04-08 18:10:00,48.4,43.4,29.68,NW,315,0.0,0.9,83,0.00,,,0.63,WUHU21623XXSP,2013-04-08 23:10:00,
2013-04-08 18:15:00,48.2,43.4,29.68,NW,315,0.0,2.0,83,0.00,,,0.63,WUHU21623XXSP,2013-04-08 23:15:00,
2013-04-08 18:20:00,48.2,43.2,29.68,NW,315,0.0,2.0,83,0.00,,,0.63,WUHU21623XXSP,2013-04-08 23:20:00,
2013-04-08 18:25:00,48.0,43.1,29.68,NW,315,5.6,5.6,83,0.00,,,0.63,WUHU21623XXSP,2013-04-08 23:25:00,
2013-04-08 18:30:00,47.8,42.9,29.68,NNW,337,2.0,5.6,83,0.00,,,0.63,WUHU21623XXSP,2013-04-08 23:30:00,
2013-04-08 18:35:00,47.8,42.9,29.68,NNW,337,0.9,2.2,83,0.00,,,0.63,WUHU21623XXSP,2013-04-08 23:35:00,
2013-04-08 18:40:00,47.5,42.9,29.68,North,0,0.0,0.9,84,0.00,,,0.63,WUHU21623XXSP,2013-04-08 23:40:00,
2013-04-08 18:45:00,47.3,42.4,29.68,North,0,0.0,0.0,83,0.00,,,0.63,WUHU21623XXSP,2013-04-08 23:45:00,
2013-04-08 18:50:00,47.1,42.2,29.68,ESE,112,2.0,2.0,83,0.00,,,0.63,WUHU21623XXSP,2013-04-08 23:50:00,
2013-04-08 18:55:00,46.9,42.4,29.69,East,90,0.0,2.0,84,0.00,,,0.63,WUHU21623XXSP,2013-04-08 23:55:00,
2013-04-08 19:00:00,46.6,42.0,29.69,East,90,0.0,1.6,84,0.00,,,0.63,WUHU21623XXSP,2013-04-09 00:00:00,
2013-04-08 19:05:00,46.4,41.9,29.69,ESE,112,0.0,1.6,84,0.00,,,0.63,WUHU21623XXSP,2013-04-09 00:05:00,
2013-04-08 19:10:00,46.0,41.5,29.69,ENE,67,0.0,0.0,84,0.00,,,0.63,WUHU21623XXSP,2013-04-09 00:10:00,
2013-04-08 19:15:00,45.7,41.1,29.69,ENE,67,0.0,0.0,84,0.00,,,0.63,WUHU21623XXSP,2013-04-09 00:15:00,
2013-04-08 19:21:00,45.3,40.8,29.69,ENE,67,0.0,0.0,84,0.00,,,0.63,WUHU21623XXSP,2013-04-09 00:21:00,
2013-04-08 19:25:00,44.8,40.5,29.69,ENE,67,0.0,0.0,85,0.00,,,0.63,WUHU21623XXSP,2013-04-09 00:25:00,
2013-04-08 19:31:00,44.4,40.2,29.70,ENE,67,0.0,0.0,85,0.00,,,0.63,WUHU21623XXSP,2013-04-09 00:31:00,
2013-04-08 19:36:00,43.9,39.6,29.71,ENE,67,0.0,0.0,85,0.00,,,0.63,WUHU21623XXSP,2013-04-09 00:36:00,
2013-04-08 19:41:00,43.5,39.3,29.71,ENE,67,0.0,0.0,85,0.00,,,0.63,WUHU21623XXSP,2013-04-09 00:41:00,
2013-04-08 19:46:00,43.2,38.9,29.71,ENE,67,0.0,0.0,85,0.00,,,0.63,WUHU21623XXSP,2013-04-09 00:46:00,
2013-04-08 19:51:00,43.0,39.1,29.71,ENE,67,0.0,0.0,86,0.00,,,0.63,WUHU21623XXSP,2013-04-09 00:51:00,
2013-04-08 19:57:00,42.4,38.5,29.71,NE,45,0.0,0.0,86,0.00,,,0.63,WUHU21623XXSP,2013-04-09 00:57:00,
2013-04-08 20:02:00,42.1,38.2,29.72,NE,45,0.0,0.0,86,0.00,,,0.63,WUHU21623XXSP,2013-04-09 01:02:00,
2013-04-08 20:07:00,42.1,38.5,29.72,ESE,112,0.0,0.0,87,0.00,,,0.63,WUHU21623XXSP,2013-04-09 01:07:00,
2013-04-08 20:12:00,42.1,38.5,29.72,ESE,112,0.0,0.0,87,0.00,,,0.63,WUHU21623XXSP,2013-04-09 01:12:00,
2013-04-08 20:17:00,41.9,38.6,29.73,East,90,0.0,0.0,88,0.00,,,0.63,WUHU21623XXSP,2013-04-09 01:17:00,
2013-04-08 20:22:00,41.9,38.6,29.73,East,90,0.0,0.0,88,0.00,,,0.63,WUHU21623XXSP,2013-04-09 01:22:00,
2013-04-08 20:27:00,42.1,38.8,29.74,ESE,112,0.0,0.0,88,0.00,,,0.63,WUHU21623XXSP,2013-04-09 01:27:00,
2013-04-08 20:32:00,42.3,39.3,29.74,ESE,112,0.0,0.0,89,0.00,,,0.63,WUHU21623XXSP,2013-04-09 01:32:00,
2013-04-08 20:37:00,42.4,39.4,29.74,ESE,112,0.0,0.0,89,0.00,,,0.63,WUHU21623XXSP,2013-04-09 01:37:00,
2013-04-08 20:42:00,42.6,39.6,29.75,ESE,112,0.0,1.6,89,0.00,,,0.63,WUHU21623XXSP,2013-04-09 01:42:00,
2013-04-08 20:47:00,43.0,40.0,29.75,SE,135,0.0,1.6,89,0.00,,,0.63,WUHU21623XXSP,2013-04-09 01:47:00,
2013-04-08 20:52:00,43.0,40.0,29.75,SE,135,0.0,1.6,89,0.00,,,0.63,WUHU21623XXSP,2013-04-09 01:52:00,
2013-04-08 20:57:00,43.2,40.2,29.75,SE,135,0.0,2.0,89,0.00,,,0.63,WUHU21623XXSP,2013-04-09 01:57:00,
2013-04-08 21:02:00,43.2,40.2,29.76,SSE,157,0.0,2.0,89,0.00,,,0.63,WUHU21623XXSP,2013-04-09 02:02:00,
2013-04-08 21:07:00,43.2,40.2,29.76,ENE,67,0.0,0.0,89,0.00,,,0.63,WUHU21623XXSP,2013-04-09 02:07:00,
2013-04-08 21:13:00,43.0,40.0,29.76,ENE,67,0.0,1.8,89,0.00,,,0.63,WUHU21623XXSP,2013-04-09 02:13:00,
2013-04-08 21:18:00,43.0,40.0,29.75,ENE,67,0.0,1.8,89,0.00,,,0.63,WUHU21623XXSP,2013-04-09 02:18:00,
2013-04-08 21:23:00,43.0,40.0,29.76,East,90,0.0,0.9,89,0.00,,,0.63,WUHU21623XXSP,2013-04-09 02:23:00,
2013-04-08 21:28:00,42.6,39.6,29.76,ESE,112,1.6,2.5,89,0.00,,,0.63,WUHU21623XXSP,2013-04-09 02:28:00,
2013-04-08 21:33:00,42.6,39.6,29.76,NNW,337,0.0,2.5,89,0.00,,,0.63,WUHU21623XXSP,2013-04-09 02:33:00,
2013-04-08 21:38:00,42.6,39.6,29.76,NNW,337,0.0,0.0,89,0.00,,,0.63,WUHU21623XXSP,2013-04-09 02:38:00,
2013-04-08 21:43:00,42.6,39.6,29.76,East,90,0.0,0.0,89,0.00,,,0.63,WUHU21623XXSP,2013-04-09 02:43:00,
2013-04-08 21:48:00,42.4,39.4,29.77,NNW,337,0.0,0.0,89,0.00,,,0.63,WUHU21623XXSP,2013-04-09 02:48:00,
2013-04-08 21:53:00,42.4,39.4,29.77,North,0,0.0,0.0,89,0.00,,,0.63,WUHU21623XXSP,2013-04-09 02:53:00,
2013-04-08 21:58:00,42.1,39.1,29.77,NNW,337,0.0,0.0,89,0.00,,,0.63,WUHU21623XXSP,2013-04-09 02:58:00,
2013-04-08 22:03:00,42.1,39.1,29.77,NNW,337,0.0,0.0,89,0.00,,,0.63,WUHU21623XXSP,2013-04-09 03:03:00,
2013-04-08 22:08:00,42.1,39.1,29.77,NNW,337,0.0,0.0,89,0.00,,,0.63,WUHU21623XXSP,2013-04-09 03:08:00,
2013-04-08 22:13:00,42.1,39.1,29.77,NW,315,0.0,2.0,89,0.00,,,0.63,WUHU21623XXSP,2013-04-09 03:13:00,
2013-04-08 22:18:00,41.9,38.9,29.78,NNW,337,0.0,2.0,89,0.00,,,0.63,WUHU21623XXSP,2013-04-09 03:18:00,
2013-04-08 22:23:00,41.7,38.7,29.77,SE,135,0.0,0.0,89,0.00,,,0.63,WUHU21623XXSP,2013-04-09 03:23:00,
2013-04-08 22:27:00,41.7,38.7,29.78,SE,135,0.0,0.0,89,0.00,,,0.63,WUHU21623XXSP,2013-04-09 03:27:00,
2013-04-08 22:28:00,41.7,38.7,29.78,SE,135,0.0,0.0,89,0.00,,,0.63,WUHU21623XXSP,2013-04-09 03:28:00,
2013-04-08 22:31:00,41.7,38.7,29.77,SE,135,0.0,0.0,89,0.00,,,0.63,WUHU21623XXSP,2013-04-09 03:31:00,
2013-04-08 23:31:00,40.8,37.8,29.78,NNW,338,0.0,0.0,89,0.00,,,0.63,WUHU21623XXSP,2013-04-09 04:31:00,